Time;durP1;ratioP1;P1;durP2;ratioP2;P2;SDS_P1;SDS_P2;PMS_P1;PMS_P2;Temp;Humidity;BMP_temperature;BMP_pressure;BME280_temperature;BME280_humidity;BME280_pressure;Samples;Min_cycle;Max_cycle;Signal;HPM_P1;HPM_P2
2021/04/18 00:01:03;;;;;;;9.45;3.03;;;6.40;75.60;;;;;;5055034;28;20045;-75
2021/04/18 00:03:29;;;;;;;9.25;4.25;;;6.30;75.70;;;;;;5054430;28;20021;-75
2021/04/18 00:05:55;;;;;;;11.27;3.22;;;6.30;75.70;;;;;;5054719;28;20013;-75
2021/04/18 00:08:20;;;;;;;7.88;3.63;;;6.30;75.90;;;;;;5054379;28;20100;-74
2021/04/18 00:10:46;;;;;;;11.88;3.72;;;6.30;76.10;;;;;;5053302;28;20274;-75
2021/04/18 00:13:14;;;;;;;12.77;4.28;;;6.20;76.00;;;;;;5053087;28;20103;-75
2021/04/18 00:15:42;;;;;;;15.90;4.15;;;6.20;76.30;;;;;;5053027;28;20025;-75
2021/04/18 00:18:08;;;;;;;9.57;3.97;;;6.20;76.70;;;;;;5053203;28;20013;-75
2021/04/18 00:20:34;;;;;;;14.40;4.70;;;6.20;76.80;;;;;;5054177;28;20086;-75
2021/04/18 00:23:00;;;;;;;12.55;4.28;;;6.20;77.20;;;;;;5054319;28;20453;-75
2021/04/18 00:25:25;;;;;;;8.55;4.28;;;6.10;77.40;;;;;;5052907;28;20025;-74
2021/04/18 00:27:51;;;;;;;13.57;4.75;;;6.10;77.70;;;;;;5052800;28;20021;-75
2021/04/18 00:30:19;;;;;;;12.35;4.22;;;6.10;78.10;;;;;;5052748;28;20457;-75
2021/04/18 00:32:45;;;;;;;12.38;4.93;;;6.10;78.40;;;;;;5053669;28;20067;-75
2021/04/18 00:35:12;;;;;;;11.07;4.68;;;6.10;79.30;;;;;;5054190;28;20400;-76
2021/04/18 00:37:41;;;;;;;13.52;5.15;;;6.10;79.00;;;;;;5053930;28;20473;-75
2021/04/18 00:40:14;;;;;;;12.50;5.28;;;6.10;79.20;;;;;;5052246;28;20024;-75
2021/04/18 00:42:41;;;;;;;11.40;4.97;;;6.00;79.40;;;;;;5052541;28;20017;-75
2021/04/18 00:45:08;;;;;;;16.48;5.05;;;6.00;79.40;;;;;;5054009;28;20013;-74
2021/04/18 00:47:38;;;;;;;13.23;5.40;;;6.00;79.80;;;;;;5035795;28;20081;-74
2021/04/18 00:50:04;;;;;;;14.73;4.90;;;6.00;80.20;;;;;;5053671;28;20469;-74
2021/04/18 00:52:30;;;;;;;15.60;5.57;;;6.00;80.40;;;;;;5053384;28;20024;-74
2021/04/18 00:54:56;;;;;;;16.27;4.82;;;5.90;80.40;;;;;;5053809;28;20029;-74
2021/04/18 00:57:21;;;;;;;12.10;4.43;;;5.90;80.50;;;;;;5052339;28;20051;-74
2021/04/18 00:59:48;;;;;;;12.43;4.88;;;5.90;80.40;;;;;;5054222;28;20025;-75
2021/04/18 01:02:13;;;;;;;16.27;5.38;;;5.90;80.30;;;;;;5052411;28;20013;-74
2021/04/18 01:04:39;;;;;;;18.65;6.22;;;5.80;80.20;;;;;;5052133;28;20025;-75
2021/04/18 01:07:05;;;;;;;12.07;4.25;;;5.80;80.10;;;;;;5052242;28;20013;-75
2021/04/18 01:09:31;;;;;;;13.77;4.97;;;5.80;80.00;;;;;;5052982;28;20032;-75
2021/04/18 01:11:57;;;;;;;19.60;5.47;;;5.70;80.30;;;;;;5052237;28;20415;-75
2021/04/18 01:14:23;;;;;;;13.82;4.97;;;5.70;80.20;;;;;;5053577;28;20045;-75
2021/04/18 01:16:48;;;;;;;14.75;4.85;;;5.70;80.30;;;;;;5053148;28;20029;-74
2021/04/18 01:19:14;;;;;;;13.32;4.93;;;5.60;80.50;;;;;;5053301;28;20036;-74
2021/04/18 01:21:40;;;;;;;12.93;5.25;;;5.60;80.80;;;;;;5052739;28;20275;-75
2021/04/18 01:24:06;;;;;;;9.93;4.32;;;5.60;80.20;;;;;;5053535;28;20027;-74
2021/04/18 01:26:34;;;;;;;14.02;5.13;;;5.50;80.00;;;;;;5052880;28;20021;-74
2021/04/18 01:28:59;;;;;;;16.10;4.85;;;5.50;80.30;;;;;;5052861;28;20083;-74
2021/04/18 01:31:25;;;;;;;12.60;5.20;;;5.50;80.20;;;;;;5051555;28;20020;-75
2021/04/18 01:33:51;;;;;;;14.00;4.70;;;5.40;79.90;;;;;;5051711;28;20020;-74
2021/04/18 01:36:17;;;;;;;12.82;4.80;;;5.30;79.50;;;;;;5053019;28;20406;-75
2021/04/18 01:38:43;;;;;;;12.48;4.88;;;5.20;79.40;;;;;;5052745;28;20078;-75
2021/04/18 01:41:09;;;;;;;24.33;5.68;;;5.10;79.30;;;;;;5053011;28;20074;-75
2021/04/18 01:43:38;;;;;;;10.70;5.05;;;5.10;79.60;;;;;;5052414;28;20017;-75
2021/04/18 01:46:04;;;;;;;15.88;5.30;;;5.00;80.00;;;;;;5051508;28;20480;-75
2021/04/18 01:48:29;;;;;;;13.98;5.38;;;5.00;80.00;;;;;;5051066;28;20025;-75
2021/04/18 01:50:55;;;;;;;19.00;5.07;;;4.90;80.50;;;;;;5051853;28;20028;-75
2021/04/18 01:53:21;;;;;;;11.27;5.13;;;4.90;81.00;;;;;;5052702;28;20506;-75
2021/04/18 01:55:47;;;;;;;15.40;5.05;;;4.90;81.30;;;;;;5052150;28;20044;-74
2021/04/18 01:58:12;;;;;;;16.83;6.13;;;4.80;81.20;;;;;;5052277;28;20393;-75
2021/04/18 02:00:38;;;;;;;13.32;4.72;;;4.80;81.40;;;;;;5050793;28;20024;-74
2021/04/18 02:03:04;;;;;;;10.75;4.70;;;4.70;81.50;;;;;;5051233;28;20362;-74
2021/04/18 02:05:32;;;;;;;17.40;5.70;;;4.70;81.70;;;;;;5050989;28;20024;-75
2021/04/18 02:07:57;;;;;;;14.38;5.47;;;4.70;81.80;;;;;;5052340;28;20095;-75
2021/04/18 02:10:23;;;;;;;11.52;5.50;;;4.60;82.10;;;;;;5052679;28;20108;-75
2021/04/18 02:12:49;;;;;;;18.08;5.80;;;4.60;82.40;;;;;;5051889;28;20045;-75
2021/04/18 02:15:15;;;;;;;13.52;5.90;;;4.60;82.90;;;;;;5051132;28;20024;-74
2021/04/18 02:17:40;;;;;;;16.10;5.55;;;4.60;83.20;;;;;;5050754;28;20015;-75
2021/04/18 02:20:07;;;;;;;13.18;5.50;;;4.60;83.70;;;;;;5051067;28;20461;-75
2021/04/18 02:22:34;;;;;;;12.68;5.50;;;4.60;84.00;;;;;;5050666;28;20028;-76
2021/04/18 02:24:59;;;;;;;12.18;5.70;;;4.60;84.50;;;;;;5052087;28;20021;-76
2021/04/18 02:27:27;;;;;;;19.35;6.20;;;4.60;85.00;;;;;;5052245;28;20350;-74
2021/04/18 02:29:54;;;;;;;17.77;7.40;;;4.60;85.40;;;;;;5051934;28;20024;-75
2021/04/18 02:32:20;;;;;;;13.18;6.22;;;4.60;85.80;;;;;;5050887;28;20055;-75
2021/04/18 02:34:47;;;;;;;24.88;7.70;;;4.70;86.20;;;;;;5051907;28;20053;-74
2021/04/18 02:37:12;;;;;;;18.65;6.82;;;4.70;86.50;;;;;;5050753;28;20017;-74
2021/04/18 02:39:38;;;;;;;16.02;6.53;;;4.70;86.50;;;;;;5050260;28;20032;-74
2021/04/18 02:42:04;;;;;;;14.70;6.05;;;4.70;86.80;;;;;;5050864;28;20055;-75
2021/04/18 02:44:29;;;;;;;20.00;7.10;;;4.70;86.80;;;;;;5050311;28;20105;-75
2021/04/18 02:46:55;;;;;;;28.02;9.48;;;4.80;87.10;;;;;;5050793;28;20021;-74
2021/04/18 02:49:20;;;;;;;23.17;7.70;;;4.80;87.40;;;;;;5050565;28;20587;-74
2021/04/18 02:51:46;;;;;;;19.25;7.47;;;4.80;87.60;;;;;;5051470;28;20017;-74
2021/04/18 02:54:12;;;;;;;21.50;7.65;;;4.80;87.70;;;;;;5050742;28;20056;-74
2021/04/18 02:56:37;;;;;;;21.67;7.60;;;4.90;87.80;;;;;;5050305;28;20461;-74
2021/04/18 02:59:03;;;;;;;16.17;7.57;;;4.90;87.70;;;;;;5052002;28;20343;-74
2021/04/18 03:01:29;;;;;;;14.75;7.05;;;4.90;87.50;;;;;;5050602;28;20013;-74
2021/04/18 03:03:55;;;;;;;21.25;7.65;;;4.90;87.50;;;;;;5055680;28;20024;-75
2021/04/18 03:06:20;;;;;;;18.50;6.68;;;4.90;87.50;;;;;;5055898;28;20021;-74
2021/04/18 03:08:46;;;;;;;18.35;8.02;;;4.90;87.70;;;;;;5055497;28;20095;-74
2021/04/18 03:11:12;;;;;;;21.27;8.20;;;4.90;87.80;;;;;;5056072;28;20400;-74
2021/04/18 03:13:38;;;;;;;19.33;7.65;;;4.90;88.10;;;;;;5053821;28;20045;-74
2021/04/18 03:16:04;;;;;;;19.92;8.68;;;4.90;88.20;;;;;;5055946;28;20021;-74
2021/04/18 03:18:30;;;;;;;30.05;9.30;;;4.90;88.50;;;;;;5055720;28;20045;-75
2021/04/18 03:20:56;;;;;;;22.80;8.60;;;4.90;88.80;;;;;;5055523;28;20063;-74
2021/04/18 03:23:21;;;;;;;23.95;8.20;;;4.90;88.90;;;;;;5055275;28;20017;-75
2021/04/18 03:25:47;;;;;;;22.95;7.95;;;4.90;89.20;;;;;;5053900;28;20448;-74
2021/04/18 03:28:12;;;;;;;21.10;8.48;;;5.00;90.00;;;;;;5054107;28;20029;-74
2021/04/18 03:30:38;;;;;;;20.52;8.35;;;5.00;89.30;;;;;;5053925;28;20104;-75
2021/04/18 03:33:04;;;;;;;18.98;9.05;;;5.00;89.00;;;;;;5054000;28;20017;-74
2021/04/18 03:35:29;;;;;;;23.10;8.73;;;5.00;88.90;;;;;;5055153;28;20461;-74
2021/04/18 03:37:55;;;;;;;18.42;8.60;;;5.00;88.90;;;;;;5054999;28;20114;-75
2021/04/18 03:40:21;;;;;;;20.65;8.00;;;5.00;89.00;;;;;;5053991;28;20017;-75
2021/04/18 03:42:47;;;;;;;21.40;9.25;;;5.00;89.00;;;;;;5055246;28;20025;-75
2021/04/18 03:45:12;;;;;;;17.98;8.50;;;4.90;88.80;;;;;;5053877;28;20457;-75
2021/04/18 03:47:38;;;;;;;19.58;9.68;;;5.00;89.30;;;;;;5054554;28;20017;-76
2021/04/18 03:50:05;;;;;;;20.30;9.15;;;5.00;89.40;;;;;;5053781;28;20021;-74
2021/04/18 03:52:31;;;;;;;21.00;9.50;;;5.00;89.80;;;;;;5054910;28;20021;-75
2021/04/18 03:54:56;;;;;;;21.63;9.50;;;5.00;90.00;;;;;;5056797;28;20031;-74
2021/04/18 03:57:22;;;;;;;25.40;9.52;;;5.00;90.00;;;;;;5054599;28;20511;-75
2021/04/18 03:59:48;;;;;;;19.13;8.18;;;5.00;90.10;;;;;;5054769;28;20037;-75
2021/04/18 04:02:14;;;;;;;18.50;8.27;;;5.00;90.20;;;;;;5056113;28;20048;-75
2021/04/18 04:04:40;;;;;;;20.73;10.77;;;5.00;90.20;;;;;;5054590;28;20117;-75
2021/04/18 04:07:05;;;;;;;17.60;9.32;;;5.00;90.20;;;;;;5054694;28;20025;-75
2021/04/18 04:09:31;;;;;;;13.95;7.40;;;5.00;90.20;;;;;;5086832;28;20430;-74
2021/04/18 04:11:57;;;;;;;14.23;7.05;;;5.00;90.10;;;;;;5053205;28;20473;-74
2021/04/18 04:14:23;;;;;;;15.45;6.85;;;4.90;89.60;;;;;;5053656;28;20041;-75
2021/04/18 04:16:48;;;;;;;12.05;6.45;;;4.90;89.10;;;;;;5052955;28;20020;-74
2021/04/18 04:19:14;;;;;;;11.65;6.00;;;4.80;88.40;;;;;;5054522;28;20035;-75
2021/04/18 04:21:39;;;;;;;12.20;5.90;;;4.80;88.80;;;;;;5053900;28;20071;-75
2021/04/18 04:24:05;;;;;;;11.63;5.75;;;4.70;88.10;;;;;;5054022;28;20028;-75
2021/04/18 04:26:31;;;;;;;9.40;5.22;;;4.60;87.90;;;;;;5053041;28;20358;-75
2021/04/18 04:28:56;;;;;;;11.30;5.78;;;4.60;87.80;;;;;;5053695;28;20461;-75
2021/04/18 04:31:22;;;;;;;10.38;5.75;;;4.50;87.90;;;;;;5052965;28;20017;-75
2021/04/18 04:33:48;;;;;;;12.50;5.25;;;4.40;87.80;;;;;;5054302;28;20104;-75
2021/04/18 04:36:13;;;;;;;9.98;4.63;;;4.40;88.00;;;;;;5052862;28;20338;-76
2021/04/18 04:38:39;;;;;;;7.20;4.30;;;4.30;88.30;;;;;;5052564;28;20028;-74
2021/04/18 04:41:05;;;;;;;8.85;4.80;;;4.30;88.60;;;;;;5054172;28;20023;-75
2021/04/18 04:43:32;;;;;;;9.40;4.07;;;4.30;88.80;;;;;;5052807;28;20017;-75
2021/04/18 04:45:57;;;;;;;7.63;3.22;;;4.30;88.90;;;;;;5053787;28;20024;-76
2021/04/18 04:48:23;;;;;;;7.25;4.28;;;4.30;89.00;;;;;;5052505;28;20033;-76
2021/04/18 04:50:49;;;;;;;7.45;3.80;;;4.30;89.10;;;;;;5053457;28;20020;-76
2021/04/18 04:53:14;;;;;;;5.93;3.47;;;4.30;89.30;;;;;;5053588;28;20017;-76
2021/04/18 04:55:42;;;;;;;7.13;3.58;;;4.20;89.40;;;;;;5053391;28;20478;-76
2021/04/18 04:58:08;;;;;;;10.70;4.88;;;4.20;89.60;;;;;;5053510;28;20021;-76
2021/04/18 05:00:33;;;;;;;9.38;4.72;;;4.20;89.60;;;;;;5052509;28;20025;-76
2021/04/18 05:02:59;;;;;;;10.73;5.38;;;4.30;89.90;;;;;;5053356;28;20361;-76
2021/04/18 05:05:24;;;;;;;9.02;5.63;;;4.30;89.80;;;;;;5052324;28;20017;-75
2021/04/18 05:07:50;;;;;;;10.35;6.40;;;4.30;90.00;;;;;;5052051;28;20434;-75
2021/04/18 05:10:15;;;;;;;14.95;7.50;;;4.40;90.10;;;;;;5052214;28;20532;-75
2021/04/18 05:12:41;;;;;;;12.25;7.35;;;4.40;90.40;;;;;;5051849;28;20045;-76
2021/04/18 05:15:07;;;;;;;10.55;6.07;;;4.40;90.30;;;;;;5053568;28;20096;-76
2021/04/18 05:17:34;;;;;;;11.07;5.88;;;4.50;90.30;;;;;;5053372;28;20132;-75
2021/04/18 05:19:59;;;;;;;8.75;5.38;;;4.50;89.70;;;;;;5051573;28;20103;-76
2021/04/18 05:22:25;;;;;;;8.45;4.50;;;4.50;89.20;;;;;;5052936;28;20017;-75
2021/04/18 05:24:50;;;;;;;7.60;4.30;;;4.50;88.60;;;;;;5051396;28;20474;-76
2021/04/18 05:27:16;;;;;;;8.63;5.28;;;4.50;88.10;;;;;;5051696;28;20489;-76
2021/04/18 05:29:41;;;;;;;9.18;4.80;;;4.60;88.00;;;;;;5052644;28;20438;-76
2021/04/18 05:32:07;;;;;;;7.35;4.28;;;4.60;87.50;;;;;;5052858;28;20052;-77
2021/04/18 05:34:33;;;;;;;11.65;5.18;;;4.70;87.20;;;;;;5051381;28;20025;-77
2021/04/18 05:37:00;;;;;;;6.25;3.80;;;4.70;87.50;;;;;;5052587;28;20025;-76
2021/04/18 05:39:27;;;;;;;8.43;4.57;;;4.80;87.10;;;;;;5052770;28;20037;-76
2021/04/18 05:41:53;;;;;;;10.95;5.35;;;4.80;87.10;;;;;;5052657;28;20028;-76
2021/04/18 05:44:18;;;;;;;10.32;6.25;;;4.90;87.40;;;;;;5051233;28;20013;-76
2021/04/18 05:46:44;;;;;;;10.65;5.90;;;5.00;87.70;;;;;;5051148;28;20020;-76
2021/04/18 05:49:10;;;;;;;13.35;6.47;;;5.10;87.70;;;;;;5052507;28;20033;-76
2021/04/18 05:51:36;;;;;;;12.45;7.07;;;5.20;88.10;;;;;;5051222;28;20017;-76
2021/04/18 05:54:04;;;;;;;16.55;8.25;;;5.30;89.10;;;;;;5052356;28;20086;-76
2021/04/18 05:56:30;;;;;;;11.52;6.30;;;5.40;89.20;;;;;;5051181;28;20009;-77
2021/04/18 05:58:55;;;;;;;14.00;7.68;;;5.60;89.50;;;;;;5052425;28;20418;-76
2021/04/18 06:01:25;;;;;;;13.45;8.02;;;5.70;89.20;;;;;;5052736;28;20029;-77
2021/04/18 06:03:54;;;;;;;12.57;6.80;;;5.90;89.10;;;;;;5050920;28;20361;-77
2021/04/18 06:06:20;;;;;;;16.92;9.05;;;6.10;88.80;;;;;;5052392;28;20019;-77
2021/04/18 06:08:46;;;;;;;18.92;9.23;;;6.30;88.50;;;;;;5050575;28;20180;-78
2021/04/18 06:11:12;;;;;;;18.30;9.32;;;6.40;88.30;;;;;;5050863;28;20123;-77
2021/04/18 06:13:37;;;;;;;19.38;9.35;;;6.60;88.20;;;;;;5051896;28;20111;-77
2021/04/18 06:16:04;;;;;;;20.20;9.45;;;6.80;88.00;;;;;;5050757;28;20074;-77
2021/04/18 06:18:30;;;;;;;28.00;9.48;;;6.90;87.50;;;;;;5052019;28;20021;-77
2021/04/18 06:20:55;;;;;;;19.58;9.68;;;7.00;86.80;;;;;;5050491;28;20366;-77
2021/04/18 06:23:22;;;;;;;26.55;10.70;;;7.20;87.00;;;;;;5052243;28;20063;-77
2021/04/18 06:25:48;;;;;;;19.60;7.97;;;7.30;86.60;;;;;;5050598;28;20415;-77
2021/04/18 06:28:14;;;;;;;22.98;9.32;;;7.50;86.20;;;;;;5050737;28;20043;-76
2021/04/18 06:30:39;;;;;;;20.25;8.35;;;7.60;85.00;;;;;;5050832;28;20450;-76
2021/04/18 06:33:05;;;;;;;16.88;6.88;;;7.80;84.80;;;;;;5051989;28;20370;-77
2021/04/18 06:35:30;;;;;;;21.38;7.45;;;7.90;83.40;;;;;;5052464;28;20093;-76
2021/04/18 06:37:56;;;;;;;14.65;5.72;;;8.10;83.00;;;;;;5054690;28;20047;-76
2021/04/18 06:40:22;;;;;;;14.90;6.82;;;8.30;81.80;;;;;;5057458;28;20025;-77
2021/04/18 06:42:48;;;;;;;16.60;7.07;;;8.40;80.30;;;;;;5058464;28;20468;-77
2021/04/18 06:45:14;;;;;;;18.92;6.40;;;8.60;79.60;;;;;;5057320;28;20017;-77
2021/04/18 06:47:40;;;;;;;15.15;6.68;;;8.70;77.80;;;;;;5058672;28;20027;-77
2021/04/18 06:50:07;;;;;;;12.40;4.97;;;8.90;77.10;;;;;;5058605;28;20021;-77
2021/04/18 06:52:35;;;;;;;11.85;7.00;;;8.90;75.60;;;;;;5058308;28;20469;-77
2021/04/18 06:55:01;;;;;;;16.50;7.07;;;8.90;76.20;;;;;;5058243;28;20099;-77
2021/04/18 06:57:27;;;;;;;18.45;6.95;;;9.00;76.20;;;;;;5058290;28;20028;-77
2021/04/18 06:59:53;;;;;;;20.98;6.97;;;9.00;76.20;;;;;;5058550;28;20087;-77
2021/04/18 07:02:24;;;;;;;15.68;6.50;;;9.10;75.40;;;;;;5058530;28;20020;-76
2021/04/18 07:05:06;;;;;;;18.23;6.55;;;9.20;74.10;;;;;;5057125;28;20116;-77
2021/04/18 07:07:34;;;;;;;15.07;5.63;;;9.30;73.30;;;;;;5058503;28;20075;-77
2021/04/18 07:10:01;;;;;;;15.93;6.63;;;9.20;73.10;;;;;;5058081;28;20027;-76
2021/04/18 07:12:32;;;;;;;13.30;5.60;;;9.30;72.80;;;;;;5058130;28;20099;-77
2021/04/18 07:14:58;;;;;;;17.42;5.97;;;9.40;72.40;;;;;;5058109;28;20028;-78
2021/04/18 07:17:24;;;;;;;9.95;5.47;;;9.50;72.40;;;;;;5058293;28;20017;-77
2021/04/18 07:20:15;;;;;;;11.65;4.40;;;9.70;72.30;;;;;;5057932;28;20373;-75
2021/04/18 07:22:41;;;;;;;10.38;4.20;;;10.00;69.60;;;;;;5057035;28;20314;-76
2021/04/18 07:25:08;;;;;;;10.07;4.78;;;10.30;69.10;;;;;;5057063;28;20051;-76
2021/04/18 07:27:45;;;;;;;8.82;4.32;;;10.50;67.80;;;;;;5057158;28;20017;-76
2021/04/18 07:30:12;;;;;;;11.50;4.28;;;10.80;66.30;;;;;;5056834;28;20536;-76
2021/04/18 07:32:37;;;;;;;10.82;4.47;;;10.90;65.50;;;;;;5058290;28;20020;-76
2021/04/18 07:35:03;;;;;;;9.02;3.95;;;11.10;65.60;;;;;;5058284;28;20036;-76
2021/04/18 07:37:29;;;;;;;10.60;4.35;;;11.30;64.10;;;;;;5056601;28;20009;-76
2021/04/18 07:40:00;;;;;;;7.88;2.72;;;11.40;64.10;;;;;;5058221;28;20031;-76
2021/04/18 07:42:43;;;;;;;5.85;2.78;;;11.60;63.40;;;;;;5058383;28;20017;-76
2021/04/18 07:45:11;;;;;;;7.82;2.83;;;11.60;62.40;;;;;;5056513;28;20031;-76
2021/04/18 07:47:41;;;;;;;6.72;2.47;;;11.60;62.00;;;;;;5057976;28;20025;-76
2021/04/18 07:50:14;;;;;;;3.28;1.20;;;11.80;62.40;;;;;;5054724;28;20021;-76
2021/04/18 07:52:45;;;;;;;7.38;2.85;;;11.90;62.70;;;;;;5053650;28;20021;-77
2021/04/18 07:55:12;;;;;;;;;;;11.90;61.30;;;;;;5055065;28;20017;-75
2021/04/18 07:57:40;;;;;;;9.48;3.72;;;12.10;60.60;;;;;;5054651;28;19901;-76
2021/04/18 08:00:08;;;;;;;9.65;3.53;;;12.10;60.60;;;;;;5054371;28;20039;-75
2021/04/18 08:02:35;;;;;;;7.97;3.83;;;12.30;59.30;;;;;;5053337;28;20024;-76
2021/04/18 08:05:01;;;;;;;10.35;4.05;;;12.40;59.20;;;;;;5054324;28;20082;-76
2021/04/18 08:07:28;;;;;;;7.70;3.95;;;12.50;58.80;;;;;;5053307;28;20021;-77
2021/04/18 08:10:22;;;;;;;10.27;3.28;;;12.80;58.80;;;;;;5054100;28;20467;-76
2021/04/18 08:13:07;;;;;;;8.00;2.63;;;13.10;57.10;;;;;;5059001;28;20033;-76
2021/04/18 08:15:36;;;;;;;6.13;2.72;;;13.40;57.90;;;;;;5062830;28;20009;-75
2021/04/18 08:18:02;;;;;;;6.45;2.83;;;13.80;57.60;;;;;;5063153;28;20032;-76
2021/04/18 08:20:36;;;;;;;12.43;3.63;;;14.00;56.40;;;;;;5060970;28;20115;-76
2021/04/18 08:23:08;;;;;;;7.57;3.80;;;14.20;54.50;;;;;;5065009;28;20035;-76
2021/04/18 08:25:35;;;;;;;8.75;3.90;;;14.30;53.40;;;;;;5053762;28;20422;-76
2021/04/18 08:28:08;;;;;;;11.32;5.53;;;14.40;53.00;;;;;;5053473;28;20021;-75
2021/04/18 08:31:02;;;;;;;6.60;2.42;;;14.60;53.50;;;;;;5054170;28;20037;-76
2021/04/18 08:33:40;;;;;;;4.97;1.65;;;14.80;55.30;;;;;;5050804;28;20047;-76
2021/04/18 08:36:24;;;;;;;6.68;2.63;;;15.00;56.40;;;;;;5053503;28;20382;-76
2021/04/18 08:39:04;;;;;;;8.10;1.60;;;15.10;54.70;;;;;;5052422;28;20029;-76
2021/04/18 08:41:51;;;;;;;7.88;3.42;;;15.30;56.60;;;;;;5052787;28;20122;-77
2021/04/18 08:44:37;;;;;;;7.50;3.47;;;15.20;52.60;;;;;;5053688;28;20362;-76
2021/04/18 08:47:11;;;;;;;8.15;3.85;;;15.30;52.80;;;;;;5052104;28;20029;-77
2021/04/18 08:49:45;;;;;;;7.30;2.70;;;15.40;51.60;;;;;;5051886;28;20441;-76
2021/04/18 08:52:22;;;;;;;9.23;3.13;;;15.40;51.60;;;;;;5052144;28;20032;-76
2021/04/18 08:54:49;;;;;;;12.15;3.70;;;15.50;52.20;;;;;;5051685;28;20024;-78
2021/04/18 08:57:24;;;;;;;9.55;2.70;;;15.60;51.60;;;;;;5052213;28;20013;-77
2021/04/18 08:59:58;;;;;;;9.02;3.63;;;15.60;52.90;;;;;;5051663;28;20017;-77
2021/04/18 09:02:28;;;;;;;11.63;3.55;;;15.80;46.60;;;;;;5053303;28;20043;-76
2021/04/18 09:04:57;;;;;;;9.60;2.72;;;16.00;51.00;;;;;;5053392;28;20020;-77
2021/04/18 09:07:31;;;;;;;8.90;2.92;;;16.00;52.70;;;;;;5052295;28;20024;-77
2021/04/18 09:09:58;;;;;;;7.80;3.60;;;16.20;48.70;;;;;;5052852;28;20031;-77
2021/04/18 09:12:24;;;;;;;6.03;3.15;;;16.40;45.30;;;;;;5053166;28;20021;-76
2021/04/18 09:14:49;;;;;;;8.48;3.25;;;16.50;48.20;;;;;;5051945;28;20017;-77
2021/04/18 09:17:24;;;;;;;6.88;2.05;;;16.70;47.30;;;;;;5053637;28;20017;-76
2021/04/18 09:19:54;;;;;;;8.68;3.30;;;17.00;52.70;;;;;;5053206;28;20027;-77
2021/04/18 09:22:27;;;;;;;7.10;3.10;;;17.20;43.50;;;;;;5053283;28;20105;-76
2021/04/18 09:24:53;;;;;;;9.63;3.60;;;17.20;43.10;;;;;;5051573;28;20029;-77
2021/04/18 09:27:25;;;;;;;9.48;3.53;;;17.30;43.30;;;;;;5052084;28;20044;-76
2021/04/18 09:29:54;;;;;;;8.82;3.17;;;17.40;41.50;;;;;;5051468;28;20031;-78
2021/04/18 09:32:30;;;;;;;9.25;3.67;;;17.40;44.30;;;;;;5052158;28;20355;-77
2021/04/18 09:34:56;;;;;;;9.73;3.70;;;17.50;43.60;;;;;;5051613;28;20078;-76
2021/04/18 09:37:28;;;;;;;8.95;3.60;;;17.50;40.20;;;;;;5053027;28;20021;-76
2021/04/18 09:40:00;;;;;;;9.82;3.40;;;17.70;40.30;;;;;;5052780;28;20036;-76
2021/04/18 09:42:30;;;;;;;5.97;1.92;;;17.80;43.30;;;;;;5053314;28;20044;-73
2021/04/18 09:45:25;;;;;;;5.82;2.92;;;17.90;50.80;;;;;;5052605;28;20048;-75
2021/04/18 09:48:10;;;;;;;8.88;3.20;;;18.10;44.10;;;;;;5056063;28;20039;-75
2021/04/18 09:50:35;;;;;;;7.35;3.17;;;18.30;42.70;;;;;;5051498;28;20060;-75
2021/04/18 09:53:25;;;;;;;11.07;3.75;;;18.50;39.20;;;;;;5051246;28;20469;-75
2021/04/18 09:55:56;;;;;;;6.40;2.80;;;18.50;41.50;;;;;;5052568;28;20017;-75
2021/04/18 09:58:27;;;;;;;6.00;2.00;;;18.80;43.40;;;;;;5052588;28;20025;-73
2021/04/18 10:00:52;;;;;;;4.00;1.88;;;19.10;48.40;;;;;;5052750;28;20397;-76
2021/04/18 10:03:18;;;;;;;7.15;3.28;;;19.40;49.80;;;;;;5052737;28;20067;-76
2021/04/18 10:05:43;;;;;;;8.43;3.47;;;19.50;44.60;;;;;;5052699;28;20028;-74
2021/04/18 10:08:24;;;;;;;6.60;3.17;;;19.60;46.50;;;;;;5052286;28;20040;-76
2021/04/18 10:10:55;;;;;;;7.43;3.22;;;19.80;45.40;;;;;;5050908;28;20029;-76
2021/04/18 10:13:46;;;;;;;10.80;4.07;;;20.00;43.20;;;;;;5051407;28;20090;-75
2021/04/18 10:16:13;;;;;;;7.63;3.08;;;20.20;42.80;;;;;;5052548;28;20083;-74
2021/04/18 10:18:41;;;;;;;6.68;2.30;;;20.20;45.60;;;;;;5051202;28;20095;-74
2021/04/18 10:21:15;;;;;;;7.50;3.58;;;20.20;48.20;;;;;;5050819;28;20070;-75
2021/04/18 10:23:41;;;;;;;9.68;4.82;;;20.10;50.00;;;;;;5051676;28;20013;-76
2021/04/18 10:26:06;;;;;;;6.10;1.90;;;19.90;50.00;;;;;;5053539;28;20075;-74
2021/04/18 10:28:32;;;;;;;5.85;2.47;;;19.70;50.20;;;;;;5054501;28;20357;-76
2021/04/18 10:30:58;;;;;;;9.15;2.88;;;19.80;48.30;;;;;;5052403;28;20164;-76
2021/04/18 10:33:23;;;;;;;6.70;3.47;;;19.90;48.80;;;;;;5052917;28;20040;-76
2021/04/18 10:35:49;;;;;;;9.50;4.80;;;19.90;42.40;;;;;;5050609;28;20049;-77
2021/04/18 10:38:14;;;;;;;6.85;3.53;;;19.80;40.00;;;;;;5051587;28;20013;-83
2021/04/18 10:40:41;;;;;;;10.65;3.15;;;19.80;47.90;;;;;;5052542;28;20154;-84
2021/04/18 10:43:09;;;;;;;7.78;4.65;;;20.00;50.50;;;;;;5053892;28;20040;-79
2021/04/18 10:45:35;;;;;;;12.82;4.35;;;20.20;40.40;;;;;;5053250;28;20040;-79
2021/04/18 10:48:01;;;;;;;10.23;3.03;;;20.40;45.00;;;;;;5053436;28;20029;-80
2021/04/18 10:50:27;;;;;;;9.52;3.40;;;20.70;50.30;;;;;;5052500;28;20032;-79
2021/04/18 10:52:52;;;;;;;8.68;4.70;;;21.10;43.60;;;;;;5052351;28;20029;-80
2021/04/18 10:55:18;;;;;;;7.28;4.03;;;21.10;47.20;;;;;;5053678;28;20462;-80
2021/04/18 10:57:43;;;;;;;6.38;3.10;;;21.00;42.50;;;;;;5054314;28;20025;-79
2021/04/18 11:00:10;;;;;;;8.07;4.47;;;21.00;47.50;;;;;;5052663;28;20116;-80
2021/04/18 11:02:35;;;;;;;7.45;2.70;;;21.20;45.80;;;;;;5053616;28;20021;-80
2021/04/18 11:05:01;;;;;;;7.45;2.90;;;21.40;49.60;;;;;;5054483;28;20040;-83
2021/04/18 11:07:27;;;;;;;6.05;2.40;;;21.40;51.80;;;;;;5053170;28;20024;-82
2021/04/18 11:09:53;;;;;;;10.68;3.83;;;21.30;51.70;;;;;;5051385;28;20035;-78
2021/04/18 11:12:20;;;;;;;15.32;5.50;;;20.90;47.70;;;;;;5051018;28;20062;-80
2021/04/18 11:14:46;;;;;;;8.73;4.85;;;20.60;48.10;;;;;;5050512;28;20025;-80
2021/04/18 11:17:12;;;;;;;6.88;2.95;;;20.30;44.60;;;;;;5051424;28;20029;-79
2021/04/18 11:19:38;;;;;;;8.55;5.07;;;20.00;51.60;;;;;;5050294;28;20408;-79
2021/04/18 11:22:04;;;;;;;8.52;3.85;;;19.90;49.40;;;;;;5051524;28;20480;-79
2021/04/18 11:24:30;;;;;;;7.32;3.60;;;19.70;46.30;;;;;;5053178;28;20115;-79
2021/04/18 11:26:55;;;;;;;9.05;4.50;;;19.60;55.00;;;;;;5054007;28;20480;-78
2021/04/18 11:29:21;;;;;;;6.50;2.92;;;19.50;50.40;;;;;;5054325;28;20025;-80
2021/04/18 11:31:47;;;;;;;9.60;3.47;;;19.40;53.00;;;;;;5055265;28;20369;-81
2021/04/18 11:34:13;;;;;;;10.98;5.18;;;19.40;50.70;;;;;;5054345;28;20013;-81
2021/04/18 11:36:38;;;;;;;6.47;2.75;;;19.80;43.30;;;;;;5054391;28;20381;-82
2021/04/18 11:39:04;;;;;;;11.50;5.63;;;20.20;49.40;;;;;;5054160;28;20469;-80
2021/04/18 11:41:34;;;;;;;7.95;3.60;;;20.60;40.80;;;;;;5054491;28;20074;-83
2021/04/18 11:44:01;;;;;;;6.30;2.20;;;20.90;46.80;;;;;;5054150;28;20075;-80
2021/04/18 11:46:27;;;;;;;6.30;2.90;;;21.10;51.50;;;;;;5054286;28;20020;-82
2021/04/18 11:48:54;;;;;;;8.25;3.58;;;21.40;49.50;;;;;;5054023;28;20033;-82
2021/04/18 11:51:20;;;;;;;8.82;3.63;;;21.60;44.40;;;;;;5056135;28;20023;-78
2021/04/18 11:53:46;;;;;;;8.20;3.72;;;21.60;46.60;;;;;;5056451;28;20013;-81
2021/04/18 11:56:11;;;;;;;9.07;4.43;;;21.50;48.30;;;;;;5060809;28;20338;-81
2021/04/18 11:58:37;;;;;;;8.63;4.80;;;21.50;42.90;;;;;;5077239;28;20024;-76
2021/04/18 12:01:02;;;;;;;11.13;5.90;;;21.50;37.70;;;;;;5074641;28;20021;-75
2021/04/18 12:03:28;;;;;;;12.55;5.10;;;21.60;37.40;;;;;;5075235;28;20514;-77
2021/04/18 12:05:56;;;;;;;15.35;5.88;;;21.70;41.40;;;;;;5074608;28;20017;-76
2021/04/18 12:08:22;;;;;;;9.55;3.25;;;21.70;40.10;;;;;;5074515;28;20020;-76
2021/04/18 12:10:48;;;;;;;11.15;5.57;;;21.60;48.80;;;;;;5073281;28;20604;-77
2021/04/18 12:13:14;;;;;;;9.30;4.70;;;21.70;38.40;;;;;;5074174;28;20496;-76
2021/04/18 12:15:40;;;;;;;11.60;5.57;;;21.90;36.50;;;;;;5074848;28;20020;-77
2021/04/18 12:18:06;;;;;;;8.02;2.65;;;22.10;39.20;;;;;;5074059;28;20096;-77
2021/04/18 12:20:32;;;;;;;6.32;2.15;;;22.20;49.00;;;;;;5073338;28;20021;-78
2021/04/18 12:22:57;;;;;;;10.27;2.90;;;22.30;51.50;;;;;;5074356;28;20031;-77
2021/04/18 12:25:23;;;;;;;7.28;1.77;;;22.50;51.50;;;;;;5073253;28;20025;-78
2021/04/18 12:27:49;;;;;;;9.02;5.38;;;22.50;51.60;;;;;;5073207;28;20020;-77
2021/04/18 12:30:15;;;;;;;7.68;3.15;;;22.50;42.20;;;;;;5074236;28;20364;-77
2021/04/18 12:32:45;;;;;;;10.75;5.45;;;22.50;49.70;;;;;;5093887;28;20020;-77
2021/04/18 12:35:11;;;;;;;10.93;5.57;;;22.50;36.90;;;;;;5093220;28;20016;-77
2021/04/18 12:37:37;;;;;;;9.43;5.53;;;22.40;36.10;;;;;;5093861;28;20360;-77
2021/04/18 12:40:03;;;;;;;10.60;4.88;;;22.40;37.00;;;;;;5093951;28;20031;-76
2021/04/18 12:42:29;;;;;;;11.60;5.80;;;22.40;42.20;;;;;;5093699;28;20027;-77
2021/04/18 12:44:54;;;;;;;12.45;6.05;;;22.60;36.20;;;;;;5093062;28;20012;-77
2021/04/18 12:47:20;;;;;;;4.72;2.55;;;22.80;39.30;;;;;;5094124;28;20403;-76
2021/04/18 12:49:46;;;;;;;7.65;3.50;;;22.80;45.30;;;;;;5094115;28;20047;-76